Terminal Aerodrome Forecast
Issued by NWS Bismarck, ND

Home | Current Version | Previous Version | Text Only | Print | Product List | Glossary Off
Versions: 1 2 3 4 5 6 7 8 9 10 11 12 13 14 15 16 17 18 19 20 21 22 23

532
FTUS43 KBIS 132330
TAFBIS
TAF
KBIS 132330Z 1400/1424 32010KT P6SM OVC020
     FM140800 29005KT 4SM -SN OVC020
     FM141100 31008KT 6SM -SN OVC008
     FM141400 34012G20KT P6SM OVC010
     FM142000 32015G23KT P6SM OVC030
     FM142300 32012G20KT P6SM BKN035=

USA.gov is the U.S. government's official web portal to all federal, state and local government web resources and services.